Indus, Minnesota
Current Conditions -  °F | °C
As of 12:42 PM on Thursday 30 Oct 2014 (Local Time) from KBDE Reporting Station
Light Snow Light Snow  
Wind Chill: 27°   Ceiling: 3200
Heat Index: 36°   Visibility: 3mi
Dew Point: 33°   Wind: 14mph
Humidity: 89%   Direction: 330°NNW
Pressure: 30.18"   Gusts: 26mph
Location:  48.6069°N, 94.172°W
Report Text: KBDE 301742Z AUTO 33012G23KT 3SM -SN BR SCT015 BKN032 OVC044 02/01 A3018 RMK AO2 PK WND 31027/1719 SNB26 P0000 T00220006 TSNO
Loading
Personal Weather Stations






























Interactive Weather Map
Tropical Storm Tracking
New forecast layout! Learn more

10-Day Weather Forecast

Advertisements
Track Severe Weather on mobile